Crystal Beach, Vermont
Current Conditions -  °F | °C
As of 3:55 PM on Thursday 20 Nov 2014 (Local Time) from KRUT Reporting Station
Broken Clouds Broken Clouds  
Wind Chill: 21°   Ceiling: 8000
Heat Index: 30°   Visibility: 10mi
Dew Point: 12°   Wind: 10mph
Humidity: 47%   Direction: 270°W
Pressure: 29.78"   Gusts: 16mph
Location:  43.6297°N, 73.1988°W
Report Text: KRUT 202055Z 27009G14KT 10SM FEW047 SCT070 BKN080 M01/M11 A2978 RMK AO1 52010
Loading
Personal Weather Stations






























Interactive Weather Map New forecast layout! Learn more

10-Day Weather Forecast

Advertisements
Track Severe Weather on mobile